Time;durP1;ratioP1;P1;durP2;ratioP2;P2;SDS_P1;SDS_P2;PMS_P1;PMS_P2;Temp;Humidity;BMP_temperature;BMP_pressure;BME280_temperature;BME280_humidity;BME280_pressure;Samples;Min_cycle;Max_cycle;Signal;HPM_P1;HPM_P2
2022/05/07 00:01:45;;;;;;;6.90;4.47;;;13.50;99.90;;;;;;5030116;28;20426;-74
2022/05/07 00:04:12;;;;;;;8.23;4.50;;;13.50;99.90;;;;;;5030203;28;20460;-74
2022/05/07 00:06:40;;;;;;;4.67;3.87;;;13.30;99.90;;;;;;5027296;28;20500;-74
2022/05/07 00:09:07;;;;;;;7.27;5.10;;;13.20;99.90;;;;;;5040915;22;20557;-77
2022/05/07 00:11:33;;;;;;;3.97;3.50;;;13.20;99.90;;;;;;5016628;28;20546;-77
2022/05/07 00:14:00;;;;;;;6.83;3.90;;;13.20;99.90;;;;;;5019834;28;21050;-77
2022/05/07 00:19:11;;;;;;;6.00;3.80;;;13.10;99.90;;;;;;5010747;28;20479;-77
2022/05/07 00:21:37;;;;;;;6.00;3.43;;;13.10;99.90;;;;;;5012695;28;20950;-77
2022/05/07 00:24:09;;;;;;;4.87;3.70;;;13.00;99.90;;;;;;5017427;28;20490;-77
2022/05/07 00:26:36;;;;;;;8.90;5.90;;;13.00;99.90;;;;;;5024807;28;20779;-77
2022/05/07 00:29:02;;;;;;;5.73;4.30;;;13.00;99.90;;;;;;5016980;28;20483;-78
2022/05/07 00:31:29;;;;;;;4.70;3.90;;;13.00;99.90;;;;;;5021764;28;20916;-77
2022/05/07 00:33:55;;;;;;;7.93;5.07;;;13.00;99.90;;;;;;5024542;28;20502;-77
2022/05/07 00:36:22;;;;;;;7.63;3.93;;;13.00;99.90;;;;;;5007824;28;20439;-77
2022/05/07 00:38:49;;;;;;;6.60;5.00;;;12.90;99.90;;;;;;5019292;28;20480;-77
2022/05/07 00:41:17;;;;;;;5.87;3.77;;;12.80;99.90;;;;;;5019887;28;20465;-76
2022/05/07 00:43:43;;;;;;;10.40;4.10;;;12.80;99.90;;;;;;5019380;28;20868;-77
2022/05/07 00:46:12;;;;;;;7.03;4.77;;;12.70;99.90;;;;;;5016202;28;20524;-77
2022/05/07 00:48:39;;;;;;;4.97;3.43;;;12.80;99.90;;;;;;5022350;28;20450;-79
2022/05/07 00:53:52;;;;;;;4.93;3.10;;;12.80;99.90;;;;;;5015024;28;20811;-77
2022/05/07 00:56:21;;;;;;;5.77;4.40;;;12.80;99.90;;;;;;5012101;28;20427;-77
2022/05/07 00:58:48;;;;;;;5.53;4.20;;;12.80;99.90;;;;;;5016114;28;21023;-77
2022/05/07 01:01:14;;;;;;;4.13;3.33;;;12.80;99.90;;;;;;5006852;28;20438;-77
2022/05/07 01:03:41;;;;;;;5.30;3.87;;;12.80;99.90;;;;;;5015999;28;20432;-77
2022/05/07 01:06:09;;;;;;;6.80;6.10;;;12.60;99.90;;;;;;5004801;28;20474;-77
2022/05/07 01:08:37;;;;;;;5.00;4.00;;;12.60;99.90;;;;;;5009161;28;20864;-77
2022/05/07 01:11:03;;;;;;;5.53;4.20;;;12.50;99.90;;;;;;5017732;28;20937;-77
2022/05/07 01:13:32;;;;;;;5.73;4.77;;;12.50;99.90;;;;;;5011984;28;20514;-77
2022/05/07 01:15:59;;;;;;;5.43;4.93;;;12.60;99.90;;;;;;5019591;28;20537;-77
2022/05/07 01:18:26;;;;;;;5.53;4.10;;;12.60;99.90;;;;;;5020642;28;20459;-77
2022/05/07 01:20:54;;;;;;;15.67;5.63;;;12.60;99.90;;;;;;5008056;28;20439;-77
2022/05/07 01:23:22;;;;;;;4.70;4.13;;;12.50;99.90;;;;;;5018091;28;20952;-77
2022/05/07 01:25:49;;;;;;;6.10;3.90;;;12.60;99.90;;;;;;5025046;28;20542;-78
2022/05/07 01:28:15;;;;;;;13.77;4.00;;;12.50;99.90;;;;;;5016410;28;20514;-77
2022/05/07 01:30:42;;;;;;;16.00;4.73;;;12.50;99.90;;;;;;5020723;28;20552;-76
2022/05/07 01:33:09;;;;;;;5.73;4.13;;;12.60;99.90;;;;;;5017112;28;20484;-76
2022/05/07 01:35:35;;;;;;;5.40;4.40;;;12.50;99.90;;;;;;5011146;28;20456;-76
2022/05/07 01:38:02;;;;;;;5.57;3.90;;;12.50;99.90;;;;;;5021070;28;20804;-76
2022/05/07 01:40:30;;;;;;;5.13;3.53;;;12.40;99.90;;;;;;5017642;28;20435;-76
2022/05/07 01:42:57;;;;;;;7.33;4.50;;;12.40;99.90;;;;;;5012503;28;20446;-77
2022/05/07 01:45:24;;;;;;;6.20;3.80;;;12.30;99.90;;;;;;5018399;28;20996;-79
2022/05/07 01:50:35;;;;;;;7.07;3.97;;;12.20;99.90;;;;;;5011035;28;20491;-78
2022/05/07 01:53:02;;;;;;;4.87;4.33;;;12.30;99.90;;;;;;5018411;28;21635;-78
2022/05/07 01:55:30;;;;;;;5.33;3.90;;;12.30;99.90;;;;;;5022226;28;20439;-77
2022/05/07 01:57:58;;;;;;;6.23;4.37;;;12.30;99.90;;;;;;5011188;28;20519;-77
2022/05/07 02:00:25;;;;;;;5.13;3.63;;;12.30;99.90;;;;;;5016617;28;20925;-76
2022/05/07 02:02:51;;;;;;;6.90;4.20;;;12.30;99.90;;;;;;5017245;28;20465;-77
2022/05/07 02:05:18;;;;;;;6.50;3.77;;;12.10;99.90;;;;;;5017388;28;20459;-77
2022/05/07 02:07:45;;;;;;;4.93;3.40;;;12.20;99.90;;;;;;5019173;28;21032;-77
2022/05/07 02:10:12;;;;;;;6.30;4.57;;;12.20;99.90;;;;;;5018655;28;20447;-77
2022/05/07 02:12:41;;;;;;;5.90;4.07;;;12.10;99.90;;;;;;5019937;28;20434;-78
2022/05/07 02:15:08;;;;;;;5.60;5.10;;;12.10;99.90;;;;;;5020669;28;20469;-78
2022/05/07 02:17:35;;;;;;;8.27;3.90;;;12.00;99.90;;;;;;5016691;28;20431;-78
2022/05/07 02:20:03;;;;;;;7.03;5.37;;;12.10;99.90;;;;;;5019774;28;20480;-78
2022/05/07 02:22:30;;;;;;;6.97;4.63;;;12.10;99.90;;;;;;5018238;28;21603;-77
2022/05/07 02:24:57;;;;;;;4.47;4.07;;;12.10;99.90;;;;;;5018533;28;20446;-78
2022/05/07 02:27:24;;;;;;;6.10;3.47;;;12.20;99.90;;;;;;5016715;28;20956;-77
2022/05/07 02:29:52;;;;;;;5.27;3.80;;;12.20;99.90;;;;;;5022534;28;20461;-77
2022/05/07 02:32:19;;;;;;;8.03;4.60;;;12.10;99.90;;;;;;5018919;28;20926;-77
2022/05/07 02:34:46;;;;;;;11.40;10.00;;;12.10;99.90;;;;;;5011734;28;20897;-76
2022/05/07 02:37:13;;;;;;;9.00;4.80;;;12.10;99.90;;;;;;5021987;28;20519;-77
2022/05/07 02:39:42;;;;;;;5.53;4.30;;;12.00;99.90;;;;;;5017778;28;21026;-77
2022/05/07 02:44:58;;;;;;;5.90;4.33;;;12.00;99.90;;;;;;5018238;28;20424;-77
2022/05/07 02:47:25;;;;;;;15.07;4.43;;;12.00;99.90;;;;;;5020173;28;20457;-79
2022/05/07 02:49:52;;;;;;;6.37;4.20;;;11.90;99.90;;;;;;5014329;28;21167;-78
2022/05/07 02:52:18;;;;;;;8.07;5.37;;;11.90;99.90;;;;;;5018722;28;20483;-78
2022/05/07 02:54:45;;;;;;;6.57;4.23;;;11.90;99.90;;;;;;5024170;28;20440;-78
2022/05/07 02:57:12;;;;;;;5.80;4.10;;;11.90;99.90;;;;;;5019785;28;20477;-78
2022/05/07 02:59:39;;;;;;;8.10;4.93;;;11.80;99.90;;;;;;5026565;28;20459;-78
2022/05/07 03:02:08;;;;;;;9.30;4.60;;;11.80;99.90;;;;;;5009141;28;20432;-78
2022/05/07 03:04:34;;;;;;;6.73;4.13;;;11.90;99.90;;;;;;5023027;28;20614;-76
2022/05/07 03:07:01;;;;;;;7.20;4.53;;;11.80;99.90;;;;;;5019969;28;20648;-77
2022/05/07 03:09:28;;;;;;;8.20;5.27;;;11.80;99.90;;;;;;5018159;28;20489;-77
2022/05/07 03:11:54;;;;;;;8.83;5.03;;;11.80;99.90;;;;;;5019362;28;20464;-77
2022/05/07 03:14:21;;;;;;;6.97;4.07;;;11.70;99.90;;;;;;5024351;28;20800;-77
2022/05/07 03:16:48;;;;;;;3.93;3.50;;;11.80;99.90;;;;;;5013361;28;20501;-77
2022/05/07 03:19:16;;;;;;;6.03;5.43;;;11.80;99.90;;;;;;5024830;28;20481;-77
2022/05/07 03:21:43;;;;;;;4.83;4.17;;;11.80;99.90;;;;;;5022960;28;20443;-77
2022/05/07 03:24:10;;;;;;;5.77;4.83;;;11.90;99.90;;;;;;5026330;28;20435;-77
2022/05/07 03:26:37;;;;;;;7.37;6.23;;;11.80;99.90;;;;;;5027662;28;20452;-76
2022/05/07 03:29:04;;;;;;;7.73;5.03;;;11.80;99.90;;;;;;5030802;28;20967;-76
2022/05/07 03:31:30;;;;;;;6.10;4.33;;;11.80;99.90;;;;;;5022361;28;20458;-76
2022/05/07 03:33:57;;;;;;;5.37;4.60;;;11.80;99.90;;;;;;5025493;28;20456;-77
2022/05/07 03:36:25;;;;;;;9.07;4.73;;;11.90;99.90;;;;;;5029859;28;20526;-76
2022/05/07 03:38:52;;;;;;;6.37;4.50;;;11.90;99.90;;;;;;5026555;28;20517;-77
2022/05/07 03:41:19;;;;;;;5.50;4.40;;;11.70;99.90;;;;;;5013841;28;20674;-77
2022/05/07 03:43:46;;;;;;;6.63;4.63;;;11.40;99.90;;;;;;5024147;28;20969;-77
2022/05/07 03:46:13;;;;;;;9.03;6.00;;;11.30;99.90;;;;;;5017584;28;20479;-78
2022/05/07 03:48:40;;;;;;;7.20;4.63;;;11.40;99.90;;;;;;5015069;28;20728;-77
2022/05/07 03:51:06;;;;;;;6.60;4.57;;;11.50;99.90;;;;;;5022890;28;20461;-76
2022/05/07 03:53:35;;;;;;;6.77;4.87;;;11.60;99.90;;;;;;5014828;28;20467;-77
2022/05/07 03:56:03;;;;;;;10.60;3.80;;;11.60;99.90;;;;;;5019817;28;20431;-77
2022/05/07 03:58:30;;;;;;;8.80;5.70;;;11.60;99.90;;;;;;5026898;28;20458;-76
2022/05/07 04:00:58;;;;;;;11.60;4.43;;;11.60;99.90;;;;;;5015470;28;20465;-77
2022/05/07 04:03:26;;;;;;;7.67;5.30;;;11.70;99.90;;;;;;5027825;28;20428;-77
2022/05/07 04:05:52;;;;;;;7.87;6.53;;;11.70;99.90;;;;;;5027645;28;20428;-76
2022/05/07 04:08:19;;;;;;;7.60;4.33;;;11.80;99.90;;;;;;5027370;28;20681;-77
2022/05/07 04:10:47;;;;;;;8.70;7.13;;;11.60;99.90;;;;;;5027010;28;20427;-77
2022/05/07 04:13:15;;;;;;;6.60;5.00;;;11.70;99.90;;;;;;5024720;28;20826;-77
2022/05/07 04:15:43;;;;;;;5.40;4.43;;;11.80;99.90;;;;;;5019751;28;20431;-77
2022/05/07 04:18:10;;;;;;;7.27;5.33;;;12.00;99.90;;;;;;5030239;28;20455;-77
2022/05/07 04:20:37;;;;;;;7.37;5.10;;;12.00;99.90;;;;;;5024632;28;20999;-76
2022/05/07 04:23:05;;;;;;;6.70;5.47;;;12.10;99.90;;;;;;5012672;28;20944;-76
2022/05/07 04:25:32;;;;;;;6.67;5.67;;;12.10;99.90;;;;;;5020438;28;23172;-78
2022/05/07 04:28:00;;;;;;;6.90;4.80;;;12.10;99.90;;;;;;5024168;28;20535;-78
2022/05/07 04:30:27;;;;;;;6.60;4.97;;;12.10;99.90;;;;;;5014622;28;20537;-78
2022/05/07 04:32:53;;;;;;;11.13;6.43;;;12.20;99.90;;;;;;5015124;28;20466;-78
2022/05/07 04:35:20;;;;;;;6.33;5.17;;;12.20;99.90;;;;;;5024691;28;20534;-78
2022/05/07 04:37:46;;;;;;;7.13;4.33;;;12.10;99.90;;;;;;5019927;28;20482;-78
2022/05/07 04:40:13;;;;;;;6.50;4.90;;;11.70;99.90;;;;;;5020860;28;20446;-78
2022/05/07 04:42:41;;;;;;;9.13;5.70;;;11.60;99.90;;;;;;5019185;28;20985;-79
2022/05/07 04:45:10;;;;;;;7.73;5.13;;;11.80;99.90;;;;;;5025466;28;20474;-78
2022/05/07 04:47:36;;;;;;;8.10;5.97;;;12.00;99.90;;;;;;5017166;28;20503;-78
2022/05/07 04:50:04;;;;;;;7.57;5.07;;;12.20;99.90;;;;;;5012502;28;20447;-78
2022/05/07 04:52:30;;;;;;;11.03;5.93;;;12.30;99.90;;;;;;5011504;28;20492;-78
2022/05/07 04:54:57;;;;;;;11.02;6.97;;;12.30;99.90;;;;;;5019472;28;20456;-77
2022/05/07 04:57:23;;;;;;;9.47;6.10;;;12.50;99.90;;;;;;5020051;28;20256;-78
2022/05/07 04:59:50;;;;;;;11.40;5.70;;;12.60;99.90;;;;;;5000248;28;20473;-78
2022/05/07 05:02:18;;;;;;;8.40;5.87;;;12.70;99.90;;;;;;5012122;28;20714;-77
2022/05/07 05:04:45;;;;;;;8.20;5.73;;;12.80;99.90;;;;;;5016841;28;20460;-77
2022/05/07 05:07:12;;;;;;;12.00;6.43;;;12.80;99.90;;;;;;5013806;28;20464;-78
2022/05/07 05:09:39;;;;;;;7.33;5.90;;;12.80;99.90;;;;;;5013480;28;20547;-77
2022/05/07 05:12:06;;;;;;;10.57;5.43;;;12.70;99.90;;;;;;5004409;28;20483;-77
2022/05/07 05:17:18;;;;;;;7.50;5.93;;;12.80;99.90;;;;;;5012977;28;20559;-76
2022/05/07 05:19:45;;;;;;;9.37;6.30;;;12.90;99.90;;;;;;5020356;28;20904;-78
2022/05/07 05:22:11;;;;;;;14.30;7.30;;;13.30;99.90;;;;;;5010152;28;20462;-77
2022/05/07 05:24:38;;;;;;;9.93;6.70;;;13.40;99.90;;;;;;5020350;28;21550;-77
2022/05/07 05:27:05;;;;;;;9.90;6.23;;;13.40;99.90;;;;;;5013868;28;20505;-78
2022/05/07 05:29:32;;;;;;;7.97;6.10;;;13.80;99.90;;;;;;5014388;28;20948;-78
2022/05/07 05:32:00;;;;;;;10.83;7.07;;;14.00;99.90;;;;;;5019165;28;20536;-77
2022/05/07 05:34:28;;;;;;;8.73;6.83;;;14.30;99.90;;;;;;5011374;28;20618;-77
2022/05/07 05:36:55;;;;;;;12.63;7.10;;;14.50;99.90;;;;;;5019398;28;20476;-77
2022/05/07 05:39:21;;;;;;;9.03;6.97;;;14.40;99.90;;;;;;5018712;28;20956;-77
2022/05/07 05:41:48;;;;;;;12.60;7.47;;;14.40;99.90;;;;;;5024436;28;20447;-77
2022/05/07 05:44:15;;;;;;;11.87;7.83;;;14.40;99.90;;;;;;5006165;28;20809;-77
2022/05/07 05:46:41;;;;;;;10.13;6.13;;;14.60;99.90;;;;;;5015705;28;20488;-78
2022/05/07 05:49:08;;;;;;;7.60;6.80;;;15.00;99.90;;;;;;5012432;28;20489;-78
2022/05/07 05:51:37;;;;;;;9.93;7.00;;;15.40;99.90;;;;;;5015393;28;20551;-77
2022/05/07 05:54:04;;;;;;;17.03;7.37;;;15.30;99.90;;;;;;5014356;28;20455;-78
2022/05/07 05:56:30;;;;;;;13.17;7.63;;;15.40;99.90;;;;;;5016446;28;20468;-78
2022/05/07 05:58:57;;;;;;;9.60;8.10;;;15.60;99.90;;;;;;5009647;28;20488;-79
2022/05/07 06:01:24;;;;;;;11.70;7.63;;;15.90;99.90;;;;;;5019501;28;20480;-77
2022/05/07 06:03:50;;;;;;;9.87;8.17;;;16.00;99.90;;;;;;5022956;28;20469;-76
2022/05/07 06:06:17;;;;;;;17.10;9.10;;;16.20;99.90;;;;;;5019588;28;20431;-77
2022/05/07 06:08:46;;;;;;;9.10;7.77;;;16.20;99.90;;;;;;5019932;28;20489;-77
2022/05/07 06:11:13;;;;;;;13.30;8.10;;;16.30;99.90;;;;;;5017132;28;20991;-77
2022/05/07 06:13:41;;;;;;;14.20;9.37;;;16.30;99.90;;;;;;5008855;28;21222;-77
2022/05/07 06:16:07;;;;;;;11.53;7.93;;;16.50;99.90;;;;;;5009098;28;20481;-77
2022/05/07 06:18:34;;;;;;;12.50;7.30;;;16.80;99.90;;;;;;5014390;28;20630;-78
2022/05/07 06:21:03;;;;;;;11.87;9.30;;;17.10;99.90;;;;;;5020502;28;20464;-78
2022/05/07 06:23:29;;;;;;;13.20;9.83;;;17.30;99.90;;;;;;5021206;28;20974;-78
2022/05/07 06:28:42;;;;;;;12.93;8.80;;;18.30;99.90;;;;;;5017174;28;21348;-77
2022/05/07 06:31:10;;;;;;;15.70;8.60;;;18.30;99.90;;;;;;5021894;28;20464;-77
2022/05/07 06:33:38;;;;;;;14.07;9.20;;;18.60;99.90;;;;;;5017902;28;20463;-79
2022/05/07 06:36:06;;;;;;;16.10;10.17;;;19.00;99.90;;;;;;5019052;28;20552;-78
2022/05/07 06:38:33;;;;;;;12.80;8.93;;;19.00;99.90;;;;;;5022751;28;20485;-78
2022/05/07 06:41:03;;;;;;;15.77;9.37;;;19.10;99.90;;;;;;5025259;28;20545;-78
2022/05/07 06:43:30;;;;;;;16.23;9.70;;;19.40;99.90;;;;;;5020407;28;21019;-78
2022/05/07 06:45:57;;;;;;;18.83;9.80;;;19.50;99.90;;;;;;5013632;28;20782;-77
2022/05/07 06:48:24;;;;;;;19.00;11.83;;;19.60;99.90;;;;;;5020370;28;20489;-77
2022/05/07 06:50:51;;;;;;;17.00;11.70;;;19.80;99.90;;;;;;5051281;22;20554;-75
2022/05/07 06:53:18;;;;;;;17.47;12.07;;;19.70;99.90;;;;;;5042519;28;20465;-75
2022/05/07 06:55:59;;;;;;;18.47;11.93;;;19.70;99.90;;;;;;5038081;28;20494;-74
2022/05/07 06:58:29;;;;;;;17.40;11.73;;;19.90;99.90;;;;;;5036057;28;20453;-74
2022/05/07 07:00:56;;;;;;;17.10;12.07;;;20.10;99.90;;;;;;5016457;28;20477;-73
2022/05/07 07:03:24;;;;;;;17.10;11.90;;;20.20;99.90;;;;;;5006771;28;20473;-73
2022/05/07 07:05:52;;;;;;;16.03;12.23;;;20.10;99.90;;;;;;4990283;28;20600;-73
2022/05/07 07:08:19;;;;;;;19.50;14.30;;;20.10;99.90;;;;;;5004313;28;20861;-73
2022/05/07 07:10:47;;;;;;;18.13;11.67;;;20.30;99.90;;;;;;5004977;22;21032;-73
2022/05/07 07:13:16;;;;;;;18.93;13.40;;;20.30;99.90;;;;;;4997034;28;20464;-73
2022/05/07 07:15:44;;;;;;;17.40;12.40;;;20.50;99.90;;;;;;5003425;28;20450;-75
2022/05/07 07:18:21;;;;;;;18.00;12.23;;;20.70;99.90;;;;;;5009746;28;20549;-73
2022/05/07 07:20:49;;;;;;;18.77;12.07;;;20.90;99.90;;;;;;5014870;28;20482;-73
2022/05/07 07:23:16;;;;;;;19.30;11.60;;;20.80;99.90;;;;;;5015904;28;20920;-74
2022/05/07 07:25:47;;;;;;;18.87;11.37;;;20.70;99.90;;;;;;5008511;28;20470;-74
2022/05/07 07:28:14;;;;;;;21.20;12.53;;;20.80;99.90;;;;;;5014771;28;20858;-73
2022/05/07 07:30:41;;;;;;;18.13;12.43;;;20.70;99.90;;;;;;5009207;28;20538;-73
2022/05/07 07:33:12;;;;;;;23.07;12.00;;;20.70;99.90;;;;;;5011042;28;20469;-74
2022/05/07 07:35:47;;;;;;;20.07;12.90;;;21.20;99.90;;;;;;5008395;28;20458;-73
2022/05/07 07:38:14;;;;;;;19.67;13.87;;;21.70;99.90;;;;;;5014433;28;20881;-74
2022/05/07 07:40:43;;;;;;;18.00;12.30;;;21.80;99.90;;;;;;5006972;28;20482;-74
2022/05/07 07:43:10;;;;;;;21.70;13.80;;;22.10;99.90;;;;;;5005079;28;20940;-74
2022/05/07 07:48:23;;;;;;;23.83;12.33;;;22.90;99.90;;;;;;5011932;28;20589;-74
2022/05/07 07:50:53;;;;;;;20.03;12.17;;;23.30;99.90;;;;;;5012922;28;20552;-74
2022/05/07 07:53:22;;;;;;;20.50;14.00;;;23.40;99.90;;;;;;5024041;28;20469;-74
2022/05/07 07:55:49;;;;;;;20.53;12.67;;;23.70;99.90;;;;;;5011746;28;20473;-74
2022/05/07 07:58:16;;;;;;;18.20;12.50;;;24.10;99.90;;;;;;5020916;28;20543;-75
2022/05/07 08:00:44;;;;;;;19.07;12.30;;;24.50;99.90;;;;;;5008982;28;20608;-74
2022/05/07 08:03:12;;;;;;;21.90;12.80;;;24.90;99.90;;;;;;5011532;28;20459;-74
2022/05/07 08:05:47;;;;;;;21.53;11.50;;;24.90;99.90;;;;;;5007699;28;20462;-74
2022/05/07 08:13:49;;;;;;;15.60;11.70;;;25.20;99.40;;;;;;5007116;28;21124;-74
2022/05/07 08:16:17;;;;;;;18.47;13.33;;;25.00;99.90;;;;;;5003460;28;20457;-74
2022/05/07 08:18:44;;;;;;;13.20;10.13;;;25.00;99.90;;;;;;5004670;28;20956;-74
2022/05/07 08:21:13;;;;;;;18.37;12.27;;;25.40;98.90;;;;;;5010157;28;20782;-74
2022/05/07 08:23:40;;;;;;;16.17;12.93;;;25.90;97.20;;;;;;5017289;28;20458;-74
2022/05/07 08:26:08;;;;;;;17.73;11.53;;;26.20;96.30;;;;;;5013896;28;20485;-74
2022/05/07 08:28:37;;;;;;;20.00;12.50;;;26.60;95.70;;;;;;5015244;28;20675;-74
2022/05/07 08:31:04;;;;;;;20.20;11.93;;;26.10;97.00;;;;;;5000367;28;20490;-74
2022/05/07 08:33:31;;;;;;;16.70;12.00;;;26.20;95.60;;;;;;5014220;28;20461;-74
2022/05/07 08:35:58;;;;;;;17.73;11.33;;;25.90;96.60;;;;;;5018787;28;20973;-74
2022/05/07 08:38:26;;;;;;;18.63;12.50;;;26.20;94.40;;;;;;5020108;28;20461;-74
2022/05/07 08:40:53;;;;;;;18.20;11.43;;;26.00;93.80;;;;;;5020009;28;20487;-74
2022/05/07 08:43:20;;;;;;;21.10;10.30;;;26.30;95.20;;;;;;5020730;28;20463;-74
2022/05/07 08:45:46;;;;;;;13.47;8.47;;;25.90;93.80;;;;;;5009310;28;20583;-74
2022/05/07 08:48:13;;;;;;;15.00;9.90;;;26.20;92.00;;;;;;5013325;28;20482;-74
2022/05/07 08:50:40;;;;;;;20.20;12.73;;;26.80;92.10;;;;;;5014375;28;20547;-74
2022/05/07 08:53:09;;;;;;;18.57;11.93;;;27.40;90.20;;;;;;5018243;28;20467;-73
2022/05/07 08:55:37;;;;;;;23.07;12.23;;;27.80;90.10;;;;;;5019316;28;20458;-74
2022/05/07 08:58:04;;;;;;;20.47;11.67;;;28.20;88.70;;;;;;5008925;28;20458;-74
2022/05/07 09:00:31;;;;;;;17.03;10.13;;;28.00;85.80;;;;;;5001918;28;20543;-74
2022/05/07 09:02:59;;;;;;;14.53;11.13;;;28.60;86.00;;;;;;5002412;28;20486;-74
2022/05/07 09:05:36;;;;;;;17.57;12.33;;;29.40;81.20;;;;;;4999802;28;20493;-74
2022/05/07 09:08:04;;;;;;;20.60;12.20;;;28.40;81.80;;;;;;5009490;28;20942;-74
2022/05/07 09:10:32;;;;;;;21.77;14.60;;;28.70;82.70;;;;;;5010826;28;20491;-74
2022/05/07 09:13:13;;;;;;;19.47;11.40;;;28.80;82.00;;;;;;5005980;28;20464;-74
2022/05/07 09:15:50;;;;;;;20.10;11.60;;;29.60;79.10;;;;;;5010189;28;20458;-74
2022/05/07 09:18:19;;;;;;;19.73;12.73;;;30.50;73.70;;;;;;5014515;28;20553;-74
2022/05/07 09:20:57;;;;;;;18.17;11.57;;;30.60;73.50;;;;;;5009841;28;20498;-74
2022/05/07 09:23:24;;;;;;;19.10;11.57;;;30.20;72.90;;;;;;5013024;28;21340;-74
2022/05/07 09:25:54;;;;;;;18.00;12.13;;;30.60;73.80;;;;;;5010712;28;20610;-74
2022/05/07 09:28:28;;;;;;;17.30;11.00;;;30.70;71.10;;;;;;4992685;28;20486;-74
2022/05/07 09:30:59;;;;;;;19.00;11.30;;;30.40;68.70;;;;;;4998700;28;20738;-74
2022/05/07 09:33:41;;;;;;;16.63;11.17;;;29.70;68.30;;;;;;5005523;28;20467;-73
2022/05/07 09:36:11;;;;;;;16.53;10.97;;;28.20;73.00;;;;;;5007114;28;22140;-74
2022/05/07 09:38:38;;;;;;;18.90;12.13;;;27.50;71.10;;;;;;5008781;28;20442;-73
2022/05/07 09:41:05;;;;;;;21.37;11.00;;;27.70;77.20;;;;;;5011269;28;20571;-74
2022/05/07 09:43:34;;;;;;;16.80;11.97;;;28.50;74.40;;;;;;5004742;28;20468;-74
2022/05/07 09:46:08;;;;;;;19.77;13.90;;;29.60;73.00;;;;;;5011763;28;20507;-74
2022/05/07 09:48:37;;;;;;;17.43;14.23;;;29.40;72.10;;;;;;5000576;28;21009;-74
2022/05/07 09:51:04;;;;;;;20.50;14.43;;;28.50;70.60;;;;;;5008597;28;20483;-73
2022/05/07 09:59:01;;;;;;;24.03;12.30;;;30.60;68.40;;;;;;5002293;28;20934;-73
2022/05/07 10:01:41;;;;;;;18.63;12.77;;;31.40;69.10;;;;;;5000741;28;20518;-73
2022/05/07 10:04:28;;;;;;;21.43;14.00;;;31.60;66.20;;;;;;4992276;28;20470;-74
2022/05/07 10:07:07;;;;;;;22.90;15.13;;;29.90;65.90;;;;;;5001342;28;20966;-73
2022/05/07 10:09:47;;;;;;;31.53;15.30;;;28.80;67.80;;;;;;4999542;28;20493;-74
2022/05/07 10:12:21;;;;;;;18.80;13.50;;;28.00;69.00;;;;;;5004227;28;20470;-73
2022/05/07 10:14:50;;;;;;;22.90;16.27;;;27.00;74.30;;;;;;4994140;28;20636;-73
2022/05/07 10:17:23;;;;;;;21.27;14.20;;;27.20;74.20;;;;;;4994118;28;20558;-74
2022/05/07 10:19:50;;;;;;;26.43;15.57;;;27.70;73.80;;;;;;4995639;28;20513;-73
2022/05/07 10:22:18;;;;;;;18.73;14.70;;;27.80;70.10;;;;;;4996717;28;21047;-75
2022/05/07 10:24:46;;;;;;;21.10;14.60;;;28.90;69.50;;;;;;5016474;28;20819;-73
2022/05/07 10:27:30;;;;;;;24.87;15.87;;;28.30;68.20;;;;;;5003101;28;20462;-74
2022/05/07 10:30:08;;;;;;;22.73;13.97;;;27.80;69.40;;;;;;5002586;28;20490;-74
2022/05/07 10:32:56;;;;;;;22.90;16.63;;;27.40;70.40;;;;;;4996037;28;20573;-74
2022/05/07 10:35:42;;;;;;;20.53;13.63;;;27.60;72.20;;;;;;4995880;28;20572;-74
2022/05/07 10:38:12;;;;;;;23.20;15.37;;;28.60;68.40;;;;;;5007845;28;20465;-73
2022/05/07 10:41:04;;;;;;;17.57;14.43;;;28.10;68.10;;;;;;4987771;28;21214;-76
2022/05/07 10:43:35;;;;;;;19.13;13.33;;;28.60;67.00;;;;;;5001144;28;20461;-75
2022/05/07 10:46:06;;;;;;;16.93;12.50;;;28.40;66.70;;;;;;5011963;28;20464;-75
2022/05/07 10:48:45;;;;;;;21.87;14.17;;;28.30;68.80;;;;;;5012477;28;20610;-75
2022/05/07 10:51:18;;;;;;;22.60;16.07;;;29.30;68.10;;;;;;5015997;28;20488;-75
2022/05/07 10:53:45;;;;;;;26.10;16.17;;;30.30;65.80;;;;;;5012647;28;20454;-76
2022/05/07 10:56:13;;;;;;;22.07;16.53;;;31.40;64.00;;;;;;4991222;28;20471;-75
2022/05/07 10:58:46;;;;;;;19.30;14.07;;;32.00;60.20;;;;;;5007171;28;20466;-77
2022/05/07 11:01:15;;;;;;;15.30;12.80;;;32.40;59.40;;;;;;5013110;28;20490;-76
2022/05/07 11:03:42;;;;;;;19.77;14.03;;;31.80;59.30;;;;;;5018537;28;20571;-75
2022/05/07 11:06:09;;;;;;;14.77;12.10;;;31.70;57.60;;;;;;5022611;28;20797;-75
2022/05/07 11:08:47;;;;;;;17.13;9.93;;;31.60;57.50;;;;;;5014476;28;20490;-75
2022/05/07 11:11:14;;;;;;;13.63;9.03;;;30.90;57.70;;;;;;5008654;28;20766;-74
2022/05/07 11:13:49;;;;;;;12.00;8.17;;;29.90;58.50;;;;;;5017569;28;20454;-74
2022/05/07 11:16:28;;;;;;;15.63;11.20;;;29.00;59.90;;;;;;5020732;28;20464;-74
2022/05/07 11:18:55;;;;;;;15.30;11.40;;;27.30;65.20;;;;;;5015265;28;20476;-75
2022/05/07 11:21:25;;;;;;;17.53;11.87;;;26.40;67.70;;;;;;5012237;28;20850;-75
2022/05/07 11:23:56;;;;;;;18.03;14.90;;;26.20;70.30;;;;;;5019423;28;20817;-75
2022/05/07 11:26:23;;;;;;;14.60;11.90;;;25.80;71.40;;;;;;5019144;28;20861;-75
2022/05/07 11:28:51;;;;;;;16.67;12.60;;;25.40;73.40;;;;;;5014294;28;20486;-76
2022/05/07 11:31:30;;;;;;;16.37;10.73;;;25.20;73.10;;;;;;5040517;22;20496;-76
2022/05/07 11:34:05;;;;;;;21.57;12.77;;;25.40;73.90;;;;;;5037578;28;20468;-74
2022/05/07 11:36:32;;;;;;;17.33;11.87;;;25.40;74.00;;;;;;5041866;28;20459;-75
2022/05/07 11:38:59;;;;;;;15.57;12.67;;;25.50;75.10;;;;;;5035125;28;20488;-75
2022/05/07 11:41:33;;;;;;;15.93;10.70;;;25.20;74.70;;;;;;5021430;28;20483;-75
2022/05/07 11:46:54;;;;;;;18.03;12.60;;;26.70;71.10;;;;;;5025522;28;20591;-75
2022/05/07 11:49:30;;;;;;;21.07;11.67;;;26.30;72.00;;;;;;5020741;28;20507;-76
2022/05/07 11:52:08;;;;;;;18.10;11.40;;;26.10;70.70;;;;;;5005932;28;20621;-75
2022/05/07 11:54:35;;;;;;;13.63;11.17;;;25.50;71.10;;;;;;5023193;28;20550;-76
2022/05/07 11:57:01;;;;;;;16.43;10.27;;;26.00;74.10;;;;;;5030659;28;20474;-75
2022/05/07 11:59:42;;;;;;;19.10;12.67;;;26.90;72.10;;;;;;5036838;28;20452;-78
2022/05/07 12:02:17;;;;;;;15.97;11.37;;;27.40;68.90;;;;;;5039441;28;20974;-76
2022/05/07 12:04:45;;;;;;;14.73;12.27;;;27.10;67.70;;;;;;5031531;28;21208;-75
2022/05/07 12:07:12;;;;;;;31.33;13.33;;;27.00;69.80;;;;;;5028167;28;20517;-76
2022/05/07 12:09:42;;;;;;;13.73;11.27;;;27.20;67.00;;;;;;5027715;28;20489;-76
2022/05/07 12:12:11;;;;;;;16.40;12.13;;;27.40;66.90;;;;;;5031851;28;20462;-75
2022/05/07 12:14:40;;;;;;;14.43;11.87;;;27.60;68.50;;;;;;5032982;28;20557;-75
2022/05/07 12:19:53;;;;;;;11.60;10.27;;;28.80;64.10;;;;;;5027549;28;20472;-75
2022/05/07 12:30:33;;;;;;;15.47;10.13;;;28.40;66.70;;;;;;5038584;28;20874;-75
2022/05/07 12:33:00;;;;;;;12.03;9.53;;;28.10;67.10;;;;;;5029787;28;20834;-75
2022/05/07 12:35:34;;;;;;;14.03;9.70;;;27.40;68.80;;;;;;5011757;28;20456;-75
2022/05/07 12:40:44;;;;;;;11.70;8.70;;;28.90;68.10;;;;;;5029478;28;20585;-76
2022/05/07 12:43:13;;;;;;;11.03;7.87;;;29.20;64.40;;;;;;5033328;28;20488;-76
2022/05/07 12:45:42;;;;;;;11.80;9.43;;;29.00;66.80;;;;;;5023148;28;20460;-74
2022/05/07 12:48:20;;;;;;;17.33;11.80;;;29.60;64.40;;;;;;5036748;28;20470;-74
2022/05/07 12:50:52;;;;;;;12.37;8.60;;;29.90;64.10;;;;;;5032396;28;20488;-75
2022/05/07 12:53:20;;;;;;;16.43;11.07;;;29.80;61.90;;;;;;5051755;22;21006;-75
2022/05/07 12:55:47;;;;;;;15.43;10.90;;;28.40;64.00;;;;;;4989040;28;20469;-77
2022/05/07 12:58:14;;;;;;;14.37;9.80;;;27.30;66.90;;;;;;4992875;28;20477;-76
2022/05/07 13:00:41;;;;;;;11.87;9.20;;;26.60;67.60;;;;;;5003563;28;20461;-76
2022/05/07 13:03:52;;;;;;;18.17;11.10;;;26.40;68.70;;;;;;4997257;28;20513;-74
2022/05/07 13:06:23;;;;;;;15.17;8.37;;;25.90;69.60;;;;;;4978586;28;20623;-75
2022/05/07 13:08:50;;;;;;;14.10;9.00;;;26.50;70.10;;;;;;4997303;28;20900;-76
2022/05/07 13:11:16;;;;;;;13.93;11.33;;;28.00;67.60;;;;;;4995661;28;20458;-74
2022/05/07 13:13:44;;;;;;;11.93;8.43;;;29.70;65.40;;;;;;4994378;28;20494;-77
2022/05/07 13:16:11;;;;;;;12.00;9.40;;;29.80;64.50;;;;;;5017392;28;20462;-76
2022/05/07 13:18:38;;;;;;;15.03;8.40;;;30.20;63.20;;;;;;5002256;28;20551;-77
2022/05/07 13:21:04;;;;;;;12.93;9.33;;;30.90;63.30;;;;;;4990821;28;20471;-75
2022/05/07 13:23:32;;;;;;;11.40;9.00;;;31.60;59.00;;;;;;4993026;28;20494;-76
2022/05/07 13:26:00;;;;;;;12.47;9.50;;;31.40;56.70;;;;;;5000679;28;20471;-75
2022/05/07 13:28:26;;;;;;;11.43;10.23;;;30.60;57.70;;;;;;4985208;28;20469;-76
2022/05/07 13:30:56;;;;;;;9.23;7.93;;;30.90;58.20;;;;;;4995739;28;20542;-76